Time;durP1;ratioP1;P1;durP2;ratioP2;P2;SDS_P1;SDS_P2;PMS_P1;PMS_P2;Temp;Humidity;BMP_temperature;BMP_pressure;BME280_temperature;BME280_humidity;BME280_pressure;Samples;Min_cycle;Max_cycle;Signal;HPM_P1;HPM_P2
2023/11/03 00:01:44;;;;;;;;;;;;;;;11.47;96.00;98128.66;4191342;28;20030;-68
2023/11/03 00:03:47;;;;;;;;;;;;;;;11.45;96.16;98120.00;4192196;28;19990;-68
2023/11/03 00:05:49;;;;;;;;;;;;;;;11.46;96.00;98118.94;4193086;28;20023;-68
2023/11/03 00:07:50;;;;;;;;;;;;;;;11.45;96.06;98109.19;4192178;28;19997;-68
2023/11/03 00:09:53;;;;;;;;;;;;;;;11.45;96.33;98103.78;4193036;28;20010;-68
2023/11/03 00:11:54;;;;;;;;;;;;;;;11.43;96.42;98100.50;4192312;28;20079;-67
2023/11/03 00:13:58;;;;;;;;;;;;;;;11.43;96.35;98100.50;4193020;28;20011;-68
2023/11/03 00:16:02;;;;;;;;;;;;;;;11.43;96.55;98105.91;4192968;28;20003;-68
2023/11/03 00:18:05;;;;;;;;;;;;;;;11.42;96.57;98099.66;4193308;28;20047;-68
2023/11/03 00:20:08;;;;;;;;;;;;;;;11.43;96.61;98087.00;4191839;28;20007;-67
2023/11/03 00:22:10;;;;;;;;;;;;;;;11.42;96.34;98079.94;4192438;28;20366;-68
2023/11/03 00:24:12;;;;;;;;;;;;;;;11.40;96.70;98091.00;4191909;28;20047;-67
2023/11/03 00:26:14;;;;;;;;;;;;;;;11.40;96.82;98096.41;4192027;28;20031;-67
2023/11/03 00:28:22;;;;;;;;;;;;;;;11.39;96.55;98099.34;4193628;28;20027;-68
2023/11/03 00:30:25;;;;;;;;;;;;;;;11.39;96.70;98120.97;4192189;28;20015;-68
2023/11/03 00:32:26;;;;;;;;;;;;;;;11.39;96.80;98135.28;4183869;28;20442;-68
2023/11/03 00:34:28;;;;;;;;;;;;;;;11.38;96.49;98138.25;4185731;28;19925;-68
2023/11/03 00:36:31;;;;;;;;;;;;;;;11.38;96.77;98149.06;4195626;28;20031;-68
2023/11/03 00:38:33;;;;;;;;;;;;;;;11.39;96.60;98156.09;4195241;28;20448;-68
2023/11/03 00:40:35;;;;;;;;;;;;;;;11.37;96.49;98169.88;4193344;28;20015;-68
2023/11/03 00:42:39;;;;;;;;;;;;;;;11.36;96.46;98173.63;4196287;28;20023;-67
2023/11/03 00:44:41;;;;;;;;;;;;;;;11.36;96.53;98173.63;4196453;28;20023;-67
2023/11/03 00:46:43;;;;;;;;;;;;;;;11.35;96.33;98167.41;4195238;28;20027;-68
2023/11/03 00:48:44;;;;;;;;;;;;;;;11.34;96.79;98151.44;4195902;28;20023;-68
2023/11/03 00:50:46;;;;;;;;;;;;;;;11.34;96.46;98151.44;4196525;28;20454;-67
2023/11/03 00:52:50;;;;;;;;;;;;;;;11.33;96.54;98141.69;4195309;28;20027;-68
2023/11/03 00:54:52;;;;;;;;;;;;;;;11.31;96.44;98133.81;4194845;28;20011;-68
2023/11/03 00:56:53;;;;;;;;;;;;;;;11.31;96.37;98127.59;4194901;28;20027;-68
2023/11/03 00:58:55;;;;;;;;;;;;;;;11.31;96.45;98120.31;4194659;28;20023;-68
2023/11/03 01:00:56;;;;;;;;;;;;;;;11.29;96.36;98089.22;4193039;28;20502;-68
2023/11/03 01:02:58;;;;;;;;;;;;;;;11.28;96.17;98092.97;4193263;28;20015;-68
2023/11/03 01:05:00;;;;;;;;;;;;;;;11.26;96.41;98089.72;4195952;28;20007;-68
2023/11/03 01:07:03;;;;;;;;;;;;;;;11.26;96.55;98105.91;4195947;28;20019;-68
2023/11/03 01:09:07;;;;;;;;;;;;;;;11.25;96.57;98131.28;4194349;28;20039;-68
2023/11/03 01:11:09;;;;;;;;;;;;;;;11.24;96.28;98145.84;4192510;28;20008;-68
2023/11/03 01:13:12;;;;;;;;;;;;;;;11.22;96.25;98156.91;4195066;28;20032;-68
2023/11/03 01:15:14;;;;;;;;;;;;;;;11.21;96.55;98167.94;4194054;28;20031;-68
2023/11/03 01:17:16;;;;;;;;;;;;;;;11.20;96.26;98160.94;4193734;28;20019;-68
2023/11/03 01:19:20;;;;;;;;;;;;;;;11.19;96.15;98152.00;4194808;28;19925;-68
2023/11/03 01:21:23;;;;;;;;;;;;;;;11.18;96.28;98153.88;4193146;28;20031;-68
2023/11/03 01:23:26;;;;;;;;;;;;;;;11.16;96.58;98153.31;4194921;28;21895;-68
2023/11/03 01:25:30;;;;;;;;;;;;;;;11.15;96.47;98143.56;4195263;28;20015;-68
2023/11/03 01:27:33;;;;;;;;;;;;;;;11.10;96.10;98139.97;4194940;28;20027;-67
2023/11/03 01:29:35;;;;;;;;;;;;;;;11.15;96.45;98142.75;4194518;28;20027;-68
2023/11/03 01:31:37;;;;;;;;;;;;;;;11.12;96.35;98133.25;4193275;28;19968;-68
2023/11/03 01:33:40;;;;;;;;;;;;;;;11.12;96.33;98135.94;4193559;28;20011;-68
2023/11/03 01:35:42;;;;;;;;;;;;;;;11.12;96.61;98132.44;4202985;28;20015;-67
2023/11/03 01:37:45;;;;;;;;;;;;;;;11.12;96.38;98130.53;4194568;28;20400;-67
2023/11/03 01:39:47;;;;;;;;;;;;;;;11.11;96.37;98120.81;4194147;28;19934;-67
2023/11/03 01:41:50;;;;;;;;;;;;;;;11.10;96.17;98113.75;4191502;28;20023;-68
2023/11/03 01:44:01;;;;;;;;;;;;;;;11.10;96.20;98115.66;4193970;28;20032;-69
2023/11/03 01:46:03;;;;;;;;;;;;;;;11.09;96.31;98116.72;4193822;28;20019;-68
2023/11/03 01:48:06;;;;;;;;;;;;;;;11.08;96.21;98109.66;4194015;28;20039;-68
2023/11/03 01:50:08;;;;;;;;;;;;;;;11.06;95.81;98101.00;4193080;28;20023;-67
2023/11/03 01:52:11;;;;;;;;;;;;;;;11.05;95.89;98102.88;4194481;28;20486;-67
2023/11/03 01:54:13;;;;;;;;;;;;;;;11.04;96.11;98108.53;4194364;28;20071;-68
2023/11/03 01:56:15;;;;;;;;;;;;;;;11.04;96.08;98119.34;4193580;28;20022;-67
2023/11/03 01:58:17;;;;;;;;;;;;;;;11.04;95.83;98119.34;4185609;28;20011;-68
2023/11/03 02:00:20;;;;;;;;;;;;;;;11.01;95.75;98107.13;4175924;28;20396;-68
2023/11/03 02:02:23;;;;;;;;;;;;;;;11.01;96.07;98090.91;4192267;28;20055;-67
2023/11/03 02:04:25;;;;;;;;;;;;;;;11.00;96.01;98100.06;4193546;28;20015;-67
2023/11/03 02:06:27;;;;;;;;;;;;;;;10.99;95.95;98098.47;4193812;28;20023;-67
2023/11/03 02:08:29;;;;;;;;;;;;;;;10.97;96.11;98098.72;4194153;28;20011;-68
2023/11/03 02:10:32;;;;;;;;;;;;;;;10.96;95.87;98099.75;4194367;28;19958;-68
2023/11/03 02:12:33;;;;;;;;;;;;;;;10.94;96.07;98088.38;4192927;28;20027;-68
2023/11/03 02:14:37;;;;;;;;;;;;;;;10.93;95.73;98083.22;4191903;28;19928;-68
2023/11/03 02:16:38;;;;;;;;;;;;;;;10.91;95.91;98088.88;4194090;28;20023;-68
2023/11/03 02:18:40;;;;;;;;;;;;;;;10.92;95.90;98095.09;4193066;28;20039;-67
2023/11/03 02:20:42;;;;;;;;;;;;;;;10.89;95.58;98093.69;4193790;28;19928;-67
2023/11/03 02:22:44;;;;;;;;;;;;;;;10.88;95.81;98083.97;4193266;28;20024;-67
2023/11/03 02:24:46;;;;;;;;;;;;;;;10.88;95.65;98085.81;4193686;28;20028;-68
2023/11/03 02:26:48;;;;;;;;;;;;;;;10.86;95.71;98079.84;4194433;28;20558;-67
2023/11/03 02:28:50;;;;;;;;;;;;;;;10.84;95.63;98073.91;4194262;28;20015;-68
2023/11/03 02:30:51;;;;;;;;;;;;;;;10.84;95.82;98058.50;4193139;28;20023;-67
2023/11/03 02:32:53;;;;;;;;;;;;;;;10.84;95.68;98049.59;4191917;28;20023;-67
2023/11/03 02:34:54;;;;;;;;;;;;;;;10.81;95.47;98035.53;4185190;28;20623;-67
2023/11/03 02:36:57;;;;;;;;;;;;;;;10.80;95.69;98025.78;4191213;28;20031;-67
2023/11/03 02:38:59;;;;;;;;;;;;;;;10.79;95.55;98012.53;4193734;28;20340;-68
2023/11/03 02:41:03;;;;;;;;;;;;;;;10.78;95.39;98018.97;4193716;28;20022;-67
2023/11/03 02:43:05;;;;;;;;;;;;;;;10.76;95.56;98050.81;4194411;28;20019;-68
2023/11/03 02:45:08;;;;;;;;;;;;;;;10.74;95.78;98072.66;4193512;28;20011;-67
2023/11/03 02:47:09;;;;;;;;;;;;;;;10.73;95.48;98075.59;4193514;28;20015;-67
2023/11/03 02:49:11;;;;;;;;;;;;;;;10.71;95.45;98073.13;4194188;28;19931;-68
2023/11/03 02:51:13;;;;;;;;;;;;;;;10.70;95.45;98089.59;4192251;28;20729;-67
2023/11/03 02:53:15;;;;;;;;;;;;;;;10.69;95.70;98086.06;4193053;28;20034;-68
2023/11/03 02:55:17;;;;;;;;;;;;;;;10.67;95.68;98095.47;4194231;28;20466;-67
2023/11/03 02:57:20;;;;;;;;;;;;;;;10.66;95.50;98083.03;4192015;28;20392;-68
2023/11/03 02:59:22;;;;;;;;;;;;;;;10.65;95.67;98082.22;4193560;28;20287;-67
2023/11/03 03:01:28;;;;;;;;;;;;;;;10.66;95.47;98081.16;4192246;28;20035;-68
2023/11/03 03:03:30;;;;;;;;;;;;;;;10.63;95.59;98077.06;4193154;28;20031;-68
2023/11/03 03:05:31;;;;;;;;;;;;;;;10.62;95.49;98078.09;4192856;28;20015;-68
2023/11/03 03:07:34;;;;;;;;;;;;;;;10.61;95.78;98073.78;4193279;28;20557;-68
2023/11/03 03:09:35;;;;;;;;;;;;;;;10.61;95.64;98067.53;4193522;28;20016;-67
2023/11/03 03:11:37;;;;;;;;;;;;;;;10.60;95.60;98065.94;4193397;28;20031;-67
2023/11/03 03:13:44;;;;;;;;;;;;;;;10.60;95.26;98057.84;4192574;28;20020;-67
2023/11/03 03:15:46;;;;;;;;;;;;;;;10.59;95.57;98066.97;4193218;28;20015;-67
2023/11/03 03:17:48;;;;;;;;;;;;;;;10.58;95.55;98062.63;4193368;28;20311;-67
2023/11/03 03:19:50;;;;;;;;;;;;;;;10.58;95.26;98066.16;4209549;28;20007;-68
2023/11/03 03:21:52;;;;;;;;;;;;;;;10.58;95.30;98074.28;4192869;28;19924;-68
2023/11/03 03:23:54;;;;;;;;;;;;;;;10.58;95.30;98076.97;4194081;28;20020;-68
2023/11/03 03:25:56;;;;;;;;;;;;;;;10.58;95.07;98071.56;4193060;28;20019;-67
2023/11/03 03:27:58;;;;;;;;;;;;;;;10.58;94.86;98078.81;4193608;28;20032;-68
2023/11/03 03:30:01;;;;;;;;;;;;;;;10.57;94.88;98080.72;4191730;28;20028;-67
2023/11/03 03:32:03;;;;;;;;;;;;;;;10.56;94.96;98083.66;4192094;28;20106;-67
2023/11/03 03:34:06;;;;;;;;;;;;;;;10.56;94.79;98083.66;4193564;28;20078;-67
2023/11/03 03:36:08;;;;;;;;;;;;;;;10.56;94.40;98068.28;4191773;28;20024;-67
2023/11/03 03:38:10;;;;;;;;;;;;;;;10.55;94.44;98076.63;4193136;28;20015;-67
2023/11/03 03:40:12;;;;;;;;;;;;;;;10.56;94.42;98089.06;4193720;28;20067;-67
2023/11/03 03:42:14;;;;;;;;;;;;;;;10.55;94.31;98084.72;4193544;28;19971;-67
2023/11/03 03:44:16;;;;;;;;;;;;;;;10.54;94.30;98080.41;4192693;28;20012;-67
2023/11/03 03:46:19;;;;;;;;;;;;;;;10.52;94.54;98077.94;4192758;28;20023;-68
2023/11/03 03:48:21;;;;;;;;;;;;;;;10.52;94.36;98083.34;4193327;28;20438;-67
2023/11/03 03:50:22;;;;;;;;;;;;;;;10.52;94.44;98074.44;4191998;28;20438;-67
2023/11/03 03:52:24;;;;;;;;;;;;;;;10.51;94.18;98078.19;4193715;28;20019;-68
2023/11/03 03:54:26;;;;;;;;;;;;;;;10.51;93.96;98078.97;4193609;28;20455;-67
2023/11/03 03:56:28;;;;;;;;;;;;;;;10.48;94.12;98082.16;4193878;28;20019;-67
2023/11/03 03:58:30;;;;;;;;;;;;;;;10.48;94.26;98068.66;4192430;28;20470;-67
2023/11/03 04:00:32;;;;;;;;;;;;;;;10.47;94.15;98069.75;4192184;28;20016;-67
2023/11/03 04:02:35;;;;;;;;;;;;;;;10.46;94.05;98068.09;4191913;28;19932;-67
2023/11/03 04:04:37;;;;;;;;;;;;;;;10.46;93.92;98058.13;4191835;28;20431;-67
2023/11/03 04:06:38;;;;;;;;;;;;;;;10.45;93.96;98061.06;4193057;28;20036;-67
2023/11/03 04:08:40;;;;;;;;;;;;;;;10.43;93.67;98055.91;4195310;28;20353;-68
2023/11/03 04:10:42;;;;;;;;;;;;;;;10.43;94.04;98069.41;4196010;28;20012;-67
2023/11/03 04:12:44;;;;;;;;;;;;;;;10.42;93.81;98061.53;4195806;28;20015;-67
2023/11/03 04:14:45;;;;;;;;;;;;;;;10.42;93.68;98056.97;4196684;28;20044;-67
2023/11/03 04:16:47;;;;;;;;;;;;;;;10.41;93.81;98049.94;4194950;28;19924;-67
2023/11/03 04:18:50;;;;;;;;;;;;;;;10.42;93.70;98050.75;4195318;28;20019;-67
2023/11/03 04:20:52;;;;;;;;;;;;;;;10.39;93.77;98049.38;4195956;28;20019;-67
2023/11/03 04:22:54;;;;;;;;;;;;;;;10.38;93.68;98055.00;4195614;28;20470;-67
2023/11/03 04:24:55;;;;;;;;;;;;;;;10.38;93.63;98055.00;4194534;28;20024;-67
2023/11/03 04:26:57;;;;;;;;;;;;;;;10.37;93.43;98056.88;4194050;28;19929;-67
2023/11/03 04:28:59;;;;;;;;;;;;;;;10.38;93.60;98061.22;4195506;28;20015;-68
2023/11/03 04:31:00;;;;;;;;;;;;;;;10.37;93.40;98062.25;4194650;28;20015;-67
2023/11/03 04:33:02;;;;;;;;;;;;;;;10.37;93.35;98059.56;4194054;28;19936;-68
2023/11/03 04:35:07;;;;;;;;;;;;;;;10.36;93.78;98059.81;4195737;28;20007;-68
2023/11/03 04:37:10;;;;;;;;;;;;;;;10.35;93.47;98067.09;4196224;28;20007;-68
2023/11/03 04:39:11;;;;;;;;;;;;;;;10.34;93.69;98065.44;4195694;28;20015;-68
2023/11/03 04:41:13;;;;;;;;;;;;;;;10.35;93.30;98064.41;4195896;28;20035;-67
2023/11/03 04:43:15;;;;;;;;;;;;;;;10.34;93.47;98068.16;4196331;28;19932;-68
2023/11/03 04:45:16;;;;;;;;;;;;;;;10.33;93.33;98068.38;4195480;28;20027;-68
2023/11/03 04:47:18;;;;;;;;;;;;;;;10.33;93.50;98065.69;4196387;28;20314;-68
2023/11/03 04:49:20;;;;;;;;;;;;;;;10.30;93.20;98061.59;4194058;28;20019;-67
2023/11/03 04:51:24;;;;;;;;;;;;;;;10.31;93.04;98060.50;4195503;28;20030;-67
2023/11/03 04:53:26;;;;;;;;;;;;;;;10.30;93.10;98058.88;4196049;28;20497;-67
2023/11/03 04:55:28;;;;;;;;;;;;;;;10.30;92.98;98061.59;4195761;28;20204;-68
2023/11/03 04:57:29;;;;;;;;;;;;;;;10.27;93.03;98060.16;4195054;28;20015;-67
2023/11/03 04:59:31;;;;;;;;;;;;;;;10.28;92.75;98060.97;4196083;28;20027;-68
2023/11/03 05:01:33;;;;;;;;;;;;;;;10.26;92.95;98053.13;4193500;28;20562;-67
2023/11/03 05:03:35;;;;;;;;;;;;;;;10.23;93.03;98045.50;4194900;28;19932;-68
2023/11/03 05:05:36;;;;;;;;;;;;;;;10.22;92.67;98049.28;4192910;28;20035;-67
2023/11/03 05:07:40;;;;;;;;;;;;;;;10.21;92.86;98055.72;4195453;28;19930;-68
2023/11/03 05:09:42;;;;;;;;;;;;;;;10.21;92.61;98065.72;4194608;28;20063;-68
2023/11/03 05:11:44;;;;;;;;;;;;;;;10.19;92.73;98059.75;4193620;28;20023;-67
2023/11/03 05:13:46;;;;;;;;;;;;;;;10.17;92.56;98060.00;4195645;28;20007;-68
2023/11/03 05:15:48;;;;;;;;;;;;;;;10.18;92.72;98071.59;4195652;28;20019;-68
2023/11/03 05:17:50;;;;;;;;;;;;;;;10.19;92.41;98057.88;4195984;28;20015;-68
2023/11/03 05:19:52;;;;;;;;;;;;;;;10.18;92.14;98055.41;4195003;28;20015;-67
2023/11/03 05:21:54;;;;;;;;;;;;;;;10.17;92.06;98061.84;4192713;28;20011;-67
2023/11/03 05:23:58;;;;;;;;;;;;;;;10.17;92.31;98060.00;4195187;28;20022;-67
2023/11/03 05:25:59;;;;;;;;;;;;;;;10.15;92.20;98055.88;4193901;28;20015;-68
2023/11/03 05:28:01;;;;;;;;;;;;;;;10.13;92.09;98066.09;4194357;28;20019;-68
2023/11/03 05:30:04;;;;;;;;;;;;;;;10.13;91.99;98064.22;4192888;28;20059;-67
2023/11/03 05:32:05;;;;;;;;;;;;;;;10.10;92.17;98062.81;4194088;28;20445;-67
2023/11/03 05:34:07;;;;;;;;;;;;;;;10.12;91.82;98059.06;4193219;28;20020;-67
2023/11/03 05:36:11;;;;;;;;;;;;;;;10.11;91.79;98071.75;4194159;28;20024;-67
2023/11/03 05:38:13;;;;;;;;;;;;;;;10.12;91.89;98075.25;4195809;28;20031;-67
2023/11/03 05:40:16;;;;;;;;;;;;;;;10.11;91.78;98071.75;4194036;28;20015;-67
2023/11/03 05:42:18;;;;;;;;;;;;;;;10.09;91.64;98074.66;4191700;28;20039;-67
2023/11/03 05:44:21;;;;;;;;;;;;;;;10.08;91.66;98081.13;4196128;28;20446;-67
2023/11/03 05:46:23;;;;;;;;;;;;;;;10.07;91.75;98084.84;4192864;28;20015;-68
2023/11/03 05:48:25;;;;;;;;;;;;;;;10.06;91.70;98083.25;4193166;28;20587;-68
2023/11/03 05:50:27;;;;;;;;;;;;;;;10.04;91.89;98081.81;4194349;28;20400;-68
2023/11/03 05:52:31;;;;;;;;;;;;;;;10.03;92.11;98081.03;4194501;28;20327;-68
2023/11/03 05:54:33;;;;;;;;;;;;;;;10.04;91.57;98084.53;4193979;28;20051;-68
2023/11/03 05:56:36;;;;;;;;;;;;;;;10.02;91.47;98070.47;4194598;28;20030;-67
2023/11/03 05:58:38;;;;;;;;;;;;;;;9.99;91.49;98071.75;4193319;28;20458;-68
2023/11/03 06:00:40;;;;;;;;;;;;;;;9.99;91.55;98068.25;4192792;28;20015;-68
2023/11/03 06:02:42;;;;;;;;;;;;;;;9.99;91.48;98079.03;4192264;28;20024;-67
2023/11/03 06:04:44;;;;;;;;;;;;;;;9.99;91.24;98070.94;4194719;28;20011;-68
2023/11/03 06:06:48;;;;;;;;;;;;;;;9.96;91.07;98066.84;4194300;28;20011;-67
2023/11/03 06:08:49;;;;;;;;;;;;;;;9.96;90.81;98063.34;4193805;28;20015;-67
2023/11/03 06:10:51;;;;;;;;;;;;;;;9.94;91.07;98060.88;4193541;28;20417;-68
2023/11/03 06:12:54;;;;;;;;;;;;;;;9.92;90.73;98065.66;4193741;28;20031;-67
2023/11/03 06:14:55;;;;;;;;;;;;;;;9.92;91.00;98077.28;4194121;28;20027;-68
2023/11/03 06:16:57;;;;;;;;;;;;;;;9.91;91.06;98086.44;4192994;28;19974;-67
2023/11/03 06:18:59;;;;;;;;;;;;;;;9.91;90.85;98116.09;4193382;28;20019;-68
2023/11/03 06:21:01;;;;;;;;;;;;;;;9.90;90.79;98137.88;4191466;28;20020;-68
2023/11/03 06:23:03;;;;;;;;;;;;;;;9.89;90.75;98161.34;4192971;28;20023;-68
2023/11/03 06:25:06;;;;;;;;;;;;;;;9.89;90.74;98169.44;4192569;28;20026;-68
2023/11/03 06:27:08;;;;;;;;;;;;;;;9.86;90.77;98166.41;4193819;28;20049;-67
2023/11/03 06:29:11;;;;;;;;;;;;;;;9.84;90.63;98161.25;4192816;28;20036;-67
2023/11/03 06:31:13;;;;;;;;;;;;;;;9.83;90.66;98175.75;4191009;28;20055;-67
2023/11/03 06:33:15;;;;;;;;;;;;;;;9.83;90.54;98180.34;4192888;28;20341;-67
2023/11/03 06:35:17;;;;;;;;;;;;;;;9.80;90.79;98200.50;4194037;28;20028;-68
2023/11/03 06:37:19;;;;;;;;;;;;;;;9.81;90.88;98194.06;4194153;28;20339;-67
2023/11/03 06:39:23;;;;;;;;;;;;;;;9.79;90.48;98196.16;4191172;28;20007;-67
2023/11/03 06:41:24;;;;;;;;;;;;;;;9.78;90.27;98186.44;4192279;28;20347;-68
2023/11/03 06:43:26;;;;;;;;;;;;;;;9.79;90.29;98187.25;4192501;28;19974;-68
2023/11/03 06:45:29;;;;;;;;;;;;;;;9.78;90.22;98186.44;4191111;28;20187;-68
2023/11/03 06:47:32;;;;;;;;;;;;;;;9.78;89.73;98185.59;4192153;28;20023;-68
2023/11/03 06:49:34;;;;;;;;;;;;;;;9.77;89.75;98181.28;4192652;28;20027;-68
2023/11/03 06:51:36;;;;;;;;;;;;;;;9.74;89.53;98183.38;4193900;28;20020;-68
2023/11/03 06:53:38;;;;;;;;;;;;;;;9.74;88.97;98171.78;4193282;28;20023;-68
2023/11/03 06:55:41;;;;;;;;;;;;;;;9.73;88.98;98175.50;4192506;28;20007;-69
2023/11/03 06:57:43;;;;;;;;;;;;;;;9.72;88.97;98168.50;4191756;28;20486;-68
2023/11/03 06:59:45;;;;;;;;;;;;;;;9.70;88.83;98175.97;4193087;28;20015;-68
2023/11/03 07:01:48;;;;;;;;;;;;;;;9.68;88.73;98178.91;4191511;28;20015;-68
2023/11/03 07:03:52;;;;;;;;;;;;;;;9.68;88.61;98197.78;4191846;28;20546;-69
2023/11/03 07:05:53;;;;;;;;;;;;;;;9.69;88.48;98198.63;4193137;28;19950;-68
2023/11/03 07:07:56;;;;;;;;;;;;;;;9.68;88.01;98188.88;4192648;28;20023;-68
2023/11/03 07:09:59;;;;;;;;;;;;;;;9.66;88.16;98183.72;4192923;28;20075;-68
2023/11/03 07:12:01;;;;;;;;;;;;;;;9.65;87.53;98167.78;4191821;28;20023;-67
2023/11/03 07:14:05;;;;;;;;;;;;;;;9.65;87.55;98152.44;4193053;28;20518;-68
2023/11/03 07:16:06;;;;;;;;;;;;;;;9.63;87.72;98141.06;4191084;28;20019;-67
2023/11/03 07:18:11;;;;;;;;;;;;;;;9.63;87.52;98153.75;4192106;28;20031;-67
2023/11/03 07:20:14;;;;;;;;;;;;;;;9.62;87.79;98155.59;4189568;28;20007;-68
2023/11/03 07:22:16;;;;;;;;;;;;;;;9.64;87.69;98182.31;4190499;28;20495;-67
2023/11/03 07:24:18;;;;;;;;;;;;;;;9.63;87.82;98186.88;4190184;28;20027;-67
2023/11/03 07:26:21;;;;;;;;;;;;;;;9.63;87.52;98186.06;4191652;28;19957;-67
2023/11/03 07:28:23;;;;;;;;;;;;;;;9.65;87.15;98186.66;4189778;28;20015;-67
2023/11/03 07:30:25;;;;;;;;;;;;;;;9.62;87.21;98177.16;4188987;28;20015;-68
2023/11/03 07:32:27;;;;;;;;;;;;;;;9.64;87.17;98166.13;4189583;28;20019;-68
2023/11/03 07:34:29;;;;;;;;;;;;;;;9.64;87.07;98164.28;4188990;28;20402;-67
2023/11/03 07:36:31;;;;;;;;;;;;;;;9.66;87.63;98158.66;4190000;28;20031;-67
2023/11/03 07:38:33;;;;;;;;;;;;;;;9.67;87.41;98166.50;4189685;28;20019;-67
2023/11/03 07:40:35;;;;;;;;;;;;;;;9.68;87.33;98154.66;4189981;28;20035;-67
2023/11/03 07:42:37;;;;;;;;;;;;;;;9.68;87.31;98161.94;4190135;28;20019;-67
2023/11/03 07:44:39;;;;;;;;;;;;;;;9.69;86.88;98167.09;4194373;28;20892;-67
2023/11/03 07:46:41;;;;;;;;;;;;;;;9.70;87.01;98170.59;4193876;28;20339;-67
2023/11/03 07:48:43;;;;;;;;;;;;;;;9.70;86.86;98174.13;4193294;28;20400;-67
2023/11/03 07:50:46;;;;;;;;;;;;;;;9.71;86.98;98194.63;4193685;28;20027;-67
2023/11/03 07:52:48;;;;;;;;;;;;;;;9.72;87.31;98206.25;4193176;28;20030;-67
2023/11/03 07:54:51;;;;;;;;;;;;;;;9.71;86.87;98213.47;4193441;28;20011;-67
2023/11/03 07:56:53;;;;;;;;;;;;;;;9.72;87.31;98227.81;4194955;28;20019;-67
2023/11/03 07:58:55;;;;;;;;;;;;;;;9.73;87.12;98237.50;4195127;28;20011;-67
2023/11/03 08:00:57;;;;;;;;;;;;;;;9.73;87.30;98226.72;4170116;28;20040;-68
2023/11/03 08:02:59;;;;;;;;;;;;;;;9.74;87.53;98231.06;4195246;28;20024;-67
2023/11/03 08:05:03;;;;;;;;;;;;;;;9.76;87.43;98239.75;4194985;28;20027;-67
2023/11/03 08:07:07;;;;;;;;;;;;;;;9.76;87.18;98231.66;4194214;28;20007;-67
2023/11/03 08:09:11;;;;;;;;;;;;;;;9.77;86.94;98222.53;4193897;28;20490;-67
2023/11/03 08:11:13;;;;;;;;;;;;;;;9.78;86.88;98236.81;4194504;28;20018;-67
2023/11/03 08:13:16;;;;;;;;;;;;;;;9.78;86.86;98228.72;4193439;28;20027;-67
2023/11/03 08:15:18;;;;;;;;;;;;;;;9.81;86.74;98236.34;4195219;28;20031;-67
2023/11/03 08:17:20;;;;;;;;;;;;;;;9.80;86.91;98243.63;4194227;28;20030;-67
2023/11/03 08:19:22;;;;;;;;;;;;;;;9.82;87.08;98249.59;4196136;28;20488;-67
2023/11/03 08:21:24;;;;;;;;;;;;;;;9.83;87.09;98258.53;4193351;28;20016;-67
2023/11/03 08:23:27;;;;;;;;;;;;;;;9.82;86.79;98265.75;4195929;28;20003;-67
2023/11/03 08:25:29;;;;;;;;;;;;;;;9.84;87.00;98268.22;4195889;28;20015;-67
2023/11/03 08:27:31;;;;;;;;;;;;;;;9.84;86.96;98271.78;4194875;28;19959;-67
2023/11/03 08:29:33;;;;;;;;;;;;;;;9.85;86.94;98272.59;4195722;28;20501;-67
2023/11/03 08:31:35;;;;;;;;;;;;;;;9.85;86.83;98262.59;4194372;28;20023;-67
2023/11/03 08:33:36;;;;;;;;;;;;;;;9.87;86.65;98256.97;4195013;28;20015;-67
2023/11/03 08:35:38;;;;;;;;;;;;;;;9.89;86.93;98254.88;4191549;28;19924;-67
2023/11/03 08:37:40;;;;;;;;;;;;;;;9.87;86.83;98244.34;4195956;28;20023;-67
2023/11/03 08:39:43;;;;;;;;;;;;;;;9.89;87.02;98244.09;4194689;28;20003;-67
2023/11/03 08:41:45;;;;;;;;;;;;;;;9.90;87.15;98237.63;4193532;28;20058;-67
2023/11/03 08:43:48;;;;;;;;;;;;;;;9.91;87.03;98233.91;4194910;28;20038;-67
2023/11/03 08:45:51;;;;;;;;;;;;;;;9.92;87.02;98227.44;4195127;28;20027;-67
2023/11/03 08:47:52;;;;;;;;;;;;;;;9.93;86.89;98218.31;4196086;28;19931;-67
2023/11/03 08:49:56;;;;;;;;;;;;;;;9.93;87.06;98224.50;4195145;28;19928;-67
2023/11/03 08:51:58;;;;;;;;;;;;;;;9.95;87.12;98226.16;4194474;28;20032;-67
2023/11/03 08:54:00;;;;;;;;;;;;;;;9.96;87.09;98228.63;4195654;28;20020;-66
2023/11/03 08:56:03;;;;;;;;;;;;;;;9.98;87.02;98231.91;4193174;28;20458;-67
2023/11/03 08:58:05;;;;;;;;;;;;;;;9.99;87.56;98241.63;4191683;28;20634;-67
2023/11/03 09:00:09;;;;;;;;;;;;;;;10.01;87.87;98242.22;4194080;28;20015;-67
2023/11/03 09:02:11;;;;;;;;;;;;;;;10.03;87.62;98245.50;4193582;28;20023;-67
2023/11/03 09:04:15;;;;;;;;;;;;;;;10.06;87.64;98239.66;4194714;28;20015;-67
2023/11/03 09:06:17;;;;;;;;;;;;;;;10.06;86.93;98245.03;4193908;28;20019;-67
2023/11/03 09:08:18;;;;;;;;;;;;;;;10.08;86.92;98247.50;4196498;28;20482;-67
2023/11/03 09:10:22;;;;;;;;;;;;;;;10.12;86.48;98253.25;4194288;28;20023;-67
2023/11/03 09:12:26;;;;;;;;;;;;;;;10.12;86.61;98248.66;4193167;28;20015;-67
2023/11/03 09:14:28;;;;;;;;;;;;;;;10.14;86.41;98241.19;4191312;28;20012;-67
2023/11/03 09:16:30;;;;;;;;;;;;;;;10.16;86.55;98240.94;4195791;28;20028;-67
2023/11/03 09:18:32;;;;;;;;;;;;;;;10.17;86.06;98245.25;4193759;28;20027;-67
2023/11/03 09:20:33;;;;;;;;;;;;;;;10.18;85.60;98249.59;4194338;28;20007;-67
2023/11/03 09:22:36;;;;;;;;;;;;;;;10.21;86.02;98251.84;4193565;28;20015;-67
2023/11/03 09:24:38;;;;;;;;;;;;;;;10.22;85.37;98243.50;4195225;28;20007;-67
2023/11/03 09:26:40;;;;;;;;;;;;;;;10.25;85.08;98259.22;4194602;28;20019;-67
2023/11/03 09:28:44;;;;;;;;;;;;;;;10.27;84.64;98259.00;4195051;28;19934;-67
2023/11/03 09:30:49;;;;;;;;;;;;;;;10.28;84.45;98266.00;4194127;28;20027;-67
2023/11/03 09:32:51;;;;;;;;;;;;;;;10.28;83.93;98263.31;4194397;28;19924;-67
2023/11/03 09:34:52;;;;;;;;;;;;;;;10.29;84.61;98254.97;4195031;28;20027;-67
2023/11/03 09:36:56;;;;;;;;;;;;;;;10.31;83.89;98257.44;4192826;28;20018;-67
2023/11/03 09:38:58;;;;;;;;;;;;;;;10.32;83.60;98256.41;4193473;28;19997;-67
2023/11/03 09:41:00;;;;;;;;;;;;;;;10.35;83.14;98260.53;4194463;28;20015;-66
2023/11/03 09:43:02;;;;;;;;;;;;;;;10.35;82.98;98258.66;4193686;28;20027;-67
2023/11/03 09:45:09;;;;;;;;;;;;;;;10.37;82.49;98258.41;4192412;28;20024;-67
2023/11/03 09:47:11;;;;;;;;;;;;;;;10.36;82.47;98262.16;4194456;28;20039;-67
2023/11/03 09:49:13;;;;;;;;;;;;;;;10.37;82.50;98264.63;4193776;28;20015;-67
2023/11/03 09:51:20;;;;;;;;;;;;;;;10.38;82.68;98255.47;4193221;28;20011;-67
2023/11/03 09:53:25;;;;;;;;;;;;;;;10.39;83.09;98243.63;4194293;28;20016;-69
2023/11/03 09:55:26;;;;;;;;;;;;;;;10.40;82.87;98236.34;4192839;28;20011;-69
2023/11/03 09:57:28;;;;;;;;;;;;;;;10.40;82.79;98230.97;4193939;28;20431;-69
2023/11/03 09:59:31;;;;;;;;;;;;;;;10.43;82.63;98231.28;4194703;28;20012;-68
2023/11/03 10:01:35;;;;;;;;;;;;;;;10.43;81.89;98234.00;4192723;28;20012;-68
2023/11/03 10:03:37;;;;;;;;;;;;;;;10.43;81.85;98228.59;4193730;28;20023;-68
2023/11/03 10:05:39;;;;;;;;;;;;;;;10.44;81.86;98227.56;4193410;28;20008;-69
2023/11/03 10:07:50;;;;;;;;;;;;;;;10.46;81.97;98216.53;4194595;28;20350;-68
2023/11/03 10:09:52;;;;;;;;;;;;;;;10.48;81.13;98214.41;4194564;28;19928;-68
2023/11/03 10:11:54;;;;;;;;;;;;;;;10.48;80.78;98218.97;4193629;28;20023;-68
2023/11/03 10:13:57;;;;;;;;;;;;;;;10.48;80.91;98213.59;4194629;28;20027;-67
2023/11/03 10:15:58;;;;;;;;;;;;;;;10.49;80.65;98220.63;4193068;28;20015;-68
2023/11/03 10:18:01;;;;;;;;;;;;;;;10.49;80.63;98217.94;4193621;28;20041;-68
2023/11/03 10:20:03;;;;;;;;;;;;;;;10.50;80.80;98223.09;4192996;28;20055;-68
2023/11/03 10:22:08;;;;;;;;;;;;;;;10.50;80.75;98217.69;4194122;28;20024;-68
2023/11/03 10:24:10;;;;;;;;;;;;;;;10.50;80.71;98215.00;4193762;28;20019;-68
2023/11/03 10:26:12;;;;;;;;;;;;;;;10.51;80.51;98218.50;4191187;28;20075;-68
2023/11/03 10:28:14;;;;;;;;;;;;;;;10.51;80.65;98222.00;4193610;28;20023;-68
2023/11/03 10:30:15;;;;;;;;;;;;;;;10.50;80.05;98231.19;4192209;28;20019;-68
2023/11/03 10:32:19;;;;;;;;;;;;;;;10.50;80.08;98231.19;4192914;28;20625;-67
2023/11/03 10:34:22;;;;;;;;;;;;;;;10.50;80.12;98233.03;4194450;28;20011;-69
2023/11/03 10:36:24;;;;;;;;;;;;;;;10.51;79.83;98232.00;4193962;28;20542;-68
2023/11/03 10:38:26;;;;;;;;;;;;;;;10.51;79.42;98230.09;4192519;28;20007;-68
2023/11/03 10:40:28;;;;;;;;;;;;;;;10.51;79.40;98234.69;4193821;28;20027;-68